sensor_id;sensor_type;location;lat;lon;timestamp;P1;durP1;ratioP1;P2;durP2;ratioP2
14092;SDS011;7123;49.468;10.992;2023-02-27T00:00:21;3.90;;;1.97;;
14092;SDS011;7123;49.468;10.992;2023-02-27T00:02:48;1.63;;;1.53;;
14092;SDS011;7123;49.468;10.992;2023-02-27T00:05:17;2.07;;;1.70;;
14092;SDS011;7123;49.468;10.992;2023-02-27T00:07:45;1.90;;;1.50;;
14092;SDS011;7123;49.468;10.992;2023-02-27T00:10:12;1.80;;;1.60;;
14092;SDS011;7123;49.468;10.992;2023-02-27T00:12:39;5.30;;;1.90;;
14092;SDS011;7123;49.468;10.992;2023-02-27T00:15:11;1.67;;;1.53;;
14092;SDS011;7123;49.468;10.992;2023-02-27T00:17:40;1.67;;;1.30;;
14092;SDS011;7123;49.468;10.992;2023-02-27T00:20:09;2.17;;;1.43;;
14092;SDS011;7123;49.468;10.992;2023-02-27T00:22:38;1.70;;;1.60;;
14092;SDS011;7123;49.468;10.992;2023-02-27T00:25:06;3.40;;;1.60;;
14092;SDS011;7123;49.468;10.992;2023-02-27T00:27:34;2.40;;;1.50;;
14092;SDS011;7123;49.468;10.992;2023-02-27T00:30:03;1.90;;;1.50;;
14092;SDS011;7123;49.468;10.992;2023-02-27T00:32:30;1.53;;;1.43;;
14092;SDS011;7123;49.468;10.992;2023-02-27T00:34:57;1.60;;;1.50;;
14092;SDS011;7123;49.468;10.992;2023-02-27T00:37:27;1.43;;;1.33;;
14092;SDS011;7123;49.468;10.992;2023-02-27T00:39:54;2.83;;;1.50;;
14092;SDS011;7123;49.468;10.992;2023-02-27T00:42:20;1.83;;;1.60;;
14092;SDS011;7123;49.468;10.992;2023-02-27T00:44:47;4.00;;;1.70;;
14092;SDS011;7123;49.468;10.992;2023-02-27T00:47:14;1.70;;;1.30;;
14092;SDS011;7123;49.468;10.992;2023-02-27T00:49:40;1.50;;;1.40;;
14092;SDS011;7123;49.468;10.992;2023-02-27T00:52:07;1.70;;;1.30;;
14092;SDS011;7123;49.468;10.992;2023-02-27T00:54:34;1.70;;;1.60;;
14092;SDS011;7123;49.468;10.992;2023-02-27T00:57:01;2.07;;;1.27;;
14092;SDS011;7123;49.468;10.992;2023-02-27T00:59:28;1.60;;;1.37;;
14092;SDS011;7123;49.468;10.992;2023-02-27T01:01:55;2.50;;;1.30;;
14092;SDS011;7123;49.468;10.992;2023-02-27T01:04:21;2.70;;;1.70;;
14092;SDS011;7123;49.468;10.992;2023-02-27T01:06:48;1.87;;;1.30;;
14092;SDS011;7123;49.468;10.992;2023-02-27T01:09:15;1.70;;;1.60;;
14092;SDS011;7123;49.468;10.992;2023-02-27T01:11:41;3.40;;;1.47;;
14092;SDS011;7123;49.468;10.992;2023-02-27T01:14:08;1.80;;;1.40;;
14092;SDS011;7123;49.468;10.992;2023-02-27T01:16:35;3.73;;;1.60;;
14092;SDS011;7123;49.468;10.992;2023-02-27T01:19:01;2.67;;;1.47;;
14092;SDS011;7123;49.468;10.992;2023-02-27T01:21:28;1.30;;;1.20;;
14092;SDS011;7123;49.468;10.992;2023-02-27T01:23:55;2.50;;;1.50;;
14092;SDS011;7123;49.468;10.992;2023-02-27T01:26:22;1.53;;;1.33;;
14092;SDS011;7123;49.468;10.992;2023-02-27T01:28:48;2.40;;;1.63;;
14092;SDS011;7123;49.468;10.992;2023-02-27T01:31:15;1.63;;;1.20;;
14092;SDS011;7123;49.468;10.992;2023-02-27T01:33:42;3.00;;;2.07;;
14092;SDS011;7123;49.468;10.992;2023-02-27T01:36:08;2.43;;;1.30;;
14092;SDS011;7123;49.468;10.992;2023-02-27T01:38:35;1.57;;;1.43;;
14092;SDS011;7123;49.468;10.992;2023-02-27T01:41:02;2.03;;;1.40;;
14092;SDS011;7123;49.468;10.992;2023-02-27T01:43:31;3.47;;;1.47;;
14092;SDS011;7123;49.468;10.992;2023-02-27T01:45:58;3.47;;;1.40;;
14092;SDS011;7123;49.468;10.992;2023-02-27T01:51:00;1.30;;;1.20;;
14092;SDS011;7123;49.468;10.992;2023-02-27T01:53:36;1.47;;;1.37;;
14092;SDS011;7123;49.468;10.992;2023-02-27T01:56:11;4.30;;;1.53;;
14092;SDS011;7123;49.468;10.992;2023-02-27T01:58:50;2.13;;;1.60;;
14092;SDS011;7123;49.468;10.992;2023-02-27T02:01:21;3.73;;;1.63;;
14092;SDS011;7123;49.468;10.992;2023-02-27T02:06:35;3.83;;;1.40;;
14092;SDS011;7123;49.468;10.992;2023-02-27T02:09:04;2.13;;;1.50;;
14092;SDS011;7123;49.468;10.992;2023-02-27T02:11:32;2.67;;;1.60;;
14092;SDS011;7123;49.468;10.992;2023-02-27T02:13:59;4.27;;;1.80;;
14092;SDS011;7123;49.468;10.992;2023-02-27T02:17:14;2.80;;;1.70;;
14092;SDS011;7123;49.468;10.992;2023-02-27T02:28:26;1.73;;;1.10;;
14092;SDS011;7123;49.468;10.992;2023-02-27T02:34:14;5.70;;;1.87;;
14092;SDS011;7123;49.468;10.992;2023-02-27T02:39:56;1.60;;;1.50;;
14092;SDS011;7123;49.468;10.992;2023-02-27T02:45:26;4.33;;;1.60;;
14092;SDS011;7123;49.468;10.992;2023-02-27T02:48:10;3.20;;;1.40;;
14092;SDS011;7123;49.468;10.992;2023-02-27T02:56:06;1.40;;;1.23;;
14092;SDS011;7123;49.468;10.992;2023-02-27T02:58:45;7.70;;;1.80;;
14092;SDS011;7123;49.468;10.992;2023-02-27T03:01:34;4.20;;;1.87;;
14092;SDS011;7123;49.468;10.992;2023-02-27T03:04:09;1.83;;;1.50;;
14092;SDS011;7123;49.468;10.992;2023-02-27T03:06:42;2.17;;;1.40;;
14092;SDS011;7123;49.468;10.992;2023-02-27T03:09:16;3.37;;;1.70;;
14092;SDS011;7123;49.468;10.992;2023-02-27T03:11:56;2.10;;;1.43;;
14092;SDS011;7123;49.468;10.992;2023-02-27T03:14:27;2.43;;;1.40;;
14092;SDS011;7123;49.468;10.992;2023-02-27T03:16:59;1.40;;;1.30;;
14092;SDS011;7123;49.468;10.992;2023-02-27T03:19:43;1.20;;;1.10;;
14092;SDS011;7123;49.468;10.992;2023-02-27T03:22:26;2.80;;;1.47;;
14092;SDS011;7123;49.468;10.992;2023-02-27T03:24:59;1.60;;;1.43;;
14092;SDS011;7123;49.468;10.992;2023-02-27T03:27:30;1.50;;;1.40;;
14092;SDS011;7123;49.468;10.992;2023-02-27T03:30:09;2.70;;;1.20;;
14092;SDS011;7123;49.468;10.992;2023-02-27T03:33:04;2.47;;;1.30;;
14092;SDS011;7123;49.468;10.992;2023-02-27T03:38:09;3.03;;;1.70;;
14092;SDS011;7123;49.468;10.992;2023-02-27T03:41:10;2.27;;;1.40;;
14092;SDS011;7123;49.468;10.992;2023-02-27T03:43:56;2.23;;;1.50;;
14092;SDS011;7123;49.468;10.992;2023-02-27T03:46:32;1.70;;;1.40;;
14092;SDS011;7123;49.468;10.992;2023-02-27T03:49:00;3.93;;;1.70;;
14092;SDS011;7123;49.468;10.992;2023-02-27T03:51:26;5.13;;;1.50;;
14092;SDS011;7123;49.468;10.992;2023-02-27T03:56:56;4.07;;;1.43;;
14092;SDS011;7123;49.468;10.992;2023-02-27T03:59:22;1.73;;;1.60;;
14092;SDS011;7123;49.468;10.992;2023-02-27T04:01:50;1.83;;;1.40;;
14092;SDS011;7123;49.468;10.992;2023-02-27T04:04:18;1.90;;;1.33;;
14092;SDS011;7123;49.468;10.992;2023-02-27T04:06:47;1.73;;;1.60;;
14092;SDS011;7123;49.468;10.992;2023-02-27T04:15:14;2.03;;;1.40;;
14092;SDS011;7123;49.468;10.992;2023-02-27T04:20:41;1.50;;;1.40;;
14092;SDS011;7123;49.468;10.992;2023-02-27T04:29:01;2.33;;;1.47;;
14092;SDS011;7123;49.468;10.992;2023-02-27T04:31:38;1.47;;;1.30;;
14092;SDS011;7123;49.468;10.992;2023-02-27T04:34:24;1.67;;;1.47;;
14092;SDS011;7123;49.468;10.992;2023-02-27T04:37:06;3.07;;;1.50;;
14092;SDS011;7123;49.468;10.992;2023-02-27T04:39:40;2.07;;;1.83;;
14092;SDS011;7123;49.468;10.992;2023-02-27T04:42:17;2.57;;;1.50;;
14092;SDS011;7123;49.468;10.992;2023-02-27T04:44:49;1.73;;;1.40;;
14092;SDS011;7123;49.468;10.992;2023-02-27T04:47:19;2.67;;;1.30;;
14092;SDS011;7123;49.468;10.992;2023-02-27T04:49:50;1.70;;;1.57;;
14092;SDS011;7123;49.468;10.992;2023-02-27T04:52:33;2.70;;;1.53;;
14092;SDS011;7123;49.468;10.992;2023-02-27T04:55:04;5.13;;;1.60;;
14092;SDS011;7123;49.468;10.992;2023-02-27T04:57:39;3.20;;;1.83;;
14092;SDS011;7123;49.468;10.992;2023-02-27T05:00:13;1.67;;;1.43;;
14092;SDS011;7123;49.468;10.992;2023-02-27T05:02:42;1.70;;;1.43;;
14092;SDS011;7123;49.468;10.992;2023-02-27T05:05:17;2.40;;;1.60;;
14092;SDS011;7123;49.468;10.992;2023-02-27T05:07:48;1.80;;;1.70;;
14092;SDS011;7123;49.468;10.992;2023-02-27T05:10:30;2.03;;;1.60;;
14092;SDS011;7123;49.468;10.992;2023-02-27T05:13:09;2.43;;;1.80;;
14092;SDS011;7123;49.468;10.992;2023-02-27T05:15:55;3.53;;;1.73;;
14092;SDS011;7123;49.468;10.992;2023-02-27T05:18:28;3.20;;;1.90;;
14092;SDS011;7123;49.468;10.992;2023-02-27T05:20:59;3.40;;;1.90;;
14092;SDS011;7123;49.468;10.992;2023-02-27T05:24:05;5.17;;;1.70;;
14092;SDS011;7123;49.468;10.992;2023-02-27T05:34:56;1.60;;;1.50;;
14092;SDS011;7123;49.468;10.992;2023-02-27T05:37:36;3.20;;;1.80;;
14092;SDS011;7123;49.468;10.992;2023-02-27T05:40:10;1.60;;;1.50;;
14092;SDS011;7123;49.468;10.992;2023-02-27T05:42:46;2.40;;;1.90;;
14092;SDS011;7123;49.468;10.992;2023-02-27T05:45:21;5.50;;;1.80;;
14092;SDS011;7123;49.468;10.992;2023-02-27T05:47:54;4.37;;;2.13;;
14092;SDS011;7123;49.468;10.992;2023-02-27T05:50:30;3.60;;;1.93;;
14092;SDS011;7123;49.468;10.992;2023-02-27T05:52:59;4.47;;;1.93;;
14092;SDS011;7123;49.468;10.992;2023-02-27T05:55:51;2.33;;;2.03;;
14092;SDS011;7123;49.468;10.992;2023-02-27T05:58:22;1.80;;;1.70;;
14092;SDS011;7123;49.468;10.992;2023-02-27T06:00:56;1.90;;;1.80;;
14092;SDS011;7123;49.468;10.992;2023-02-27T06:03:24;2.10;;;1.90;;
14092;SDS011;7123;49.468;10.992;2023-02-27T06:05:54;1.93;;;1.83;;
14092;SDS011;7123;49.468;10.992;2023-02-27T06:08:23;3.00;;;2.23;;
14092;SDS011;7123;49.468;10.992;2023-02-27T06:10:51;3.20;;;2.10;;
14092;SDS011;7123;49.468;10.992;2023-02-27T06:13:20;2.10;;;1.90;;
14092;SDS011;7123;49.468;10.992;2023-02-27T06:15:47;2.47;;;1.60;;
14092;SDS011;7123;49.468;10.992;2023-02-27T06:18:15;3.87;;;1.93;;
14092;SDS011;7123;49.468;10.992;2023-02-27T06:20:43;6.43;;;2.37;;
14092;SDS011;7123;49.468;10.992;2023-02-27T06:23:13;4.73;;;2.23;;
14092;SDS011;7123;49.468;10.992;2023-02-27T06:25:40;2.30;;;2.10;;
14092;SDS011;7123;49.468;10.992;2023-02-27T06:28:07;3.97;;;2.30;;
14092;SDS011;7123;49.468;10.992;2023-02-27T06:30:35;2.80;;;2.10;;
14092;SDS011;7123;49.468;10.992;2023-02-27T06:33:02;4.33;;;2.00;;
14092;SDS011;7123;49.468;10.992;2023-02-27T06:35:32;3.67;;;2.20;;
14092;SDS011;7123;49.468;10.992;2023-02-27T06:37:59;4.50;;;1.90;;
14092;SDS011;7123;49.468;10.992;2023-02-27T06:40:28;3.70;;;2.20;;
14092;SDS011;7123;49.468;10.992;2023-02-27T06:42:55;4.30;;;2.40;;
14092;SDS011;7123;49.468;10.992;2023-02-27T06:45:21;3.03;;;2.40;;
14092;SDS011;7123;49.468;10.992;2023-02-27T06:47:49;3.67;;;2.20;;
14092;SDS011;7123;49.468;10.992;2023-02-27T06:50:16;2.27;;;2.07;;
14092;SDS011;7123;49.468;10.992;2023-02-27T06:52:42;4.67;;;2.30;;
14092;SDS011;7123;49.468;10.992;2023-02-27T06:55:12;3.17;;;2.13;;
14092;SDS011;7123;49.468;10.992;2023-02-27T06:57:48;4.60;;;2.30;;
14092;SDS011;7123;49.468;10.992;2023-02-27T07:00:15;5.53;;;2.50;;
14092;SDS011;7123;49.468;10.992;2023-02-27T07:02:42;3.13;;;2.50;;
14092;SDS011;7123;49.468;10.992;2023-02-27T07:05:09;3.00;;;2.30;;
14092;SDS011;7123;49.468;10.992;2023-02-27T07:07:38;3.80;;;2.40;;
14092;SDS011;7123;49.468;10.992;2023-02-27T07:10:06;3.60;;;2.50;;
14092;SDS011;7123;49.468;10.992;2023-02-27T07:12:37;4.67;;;2.43;;
14092;SDS011;7123;49.468;10.992;2023-02-27T07:15:05;2.77;;;2.47;;
14092;SDS011;7123;49.468;10.992;2023-02-27T07:17:32;3.83;;;2.40;;
14092;SDS011;7123;49.468;10.992;2023-02-27T07:19:59;8.13;;;2.50;;
14092;SDS011;7123;49.468;10.992;2023-02-27T07:22:26;5.03;;;3.00;;
14092;SDS011;7123;49.468;10.992;2023-02-27T07:24:52;7.37;;;2.97;;
14092;SDS011;7123;49.468;10.992;2023-02-27T07:27:19;3.83;;;2.77;;
14092;SDS011;7123;49.468;10.992;2023-02-27T07:29:46;4.93;;;2.70;;
14092;SDS011;7123;49.468;10.992;2023-02-27T07:32:12;3.10;;;2.70;;
14092;SDS011;7123;49.468;10.992;2023-02-27T07:34:39;4.90;;;2.77;;
14092;SDS011;7123;49.468;10.992;2023-02-27T07:37:06;4.20;;;2.60;;
14092;SDS011;7123;49.468;10.992;2023-02-27T07:39:33;3.50;;;2.70;;
14092;SDS011;7123;49.468;10.992;2023-02-27T07:41:59;5.33;;;2.80;;
14092;SDS011;7123;49.468;10.992;2023-02-27T07:44:26;7.00;;;2.60;;
14092;SDS011;7123;49.468;10.992;2023-02-27T07:46:53;3.83;;;2.70;;
14092;SDS011;7123;49.468;10.992;2023-02-27T07:49:19;3.07;;;2.43;;
14092;SDS011;7123;49.468;10.992;2023-02-27T07:51:46;2.73;;;2.47;;
14092;SDS011;7123;49.468;10.992;2023-02-27T07:54:13;4.00;;;2.57;;
14092;SDS011;7123;49.468;10.992;2023-02-27T07:56:40;3.70;;;2.73;;
14092;SDS011;7123;49.468;10.992;2023-02-27T07:59:06;5.80;;;2.70;;
14092;SDS011;7123;49.468;10.992;2023-02-27T08:01:33;2.57;;;2.13;;
14092;SDS011;7123;49.468;10.992;2023-02-27T08:04:00;4.30;;;2.20;;
14092;SDS011;7123;49.468;10.992;2023-02-27T08:06:27;3.20;;;2.23;;
14092;SDS011;7123;49.468;10.992;2023-02-27T08:08:54;7.60;;;2.47;;
14092;SDS011;7123;49.468;10.992;2023-02-27T08:11:21;4.33;;;1.90;;
14092;SDS011;7123;49.468;10.992;2023-02-27T08:13:47;3.70;;;2.30;;
14092;SDS011;7123;49.468;10.992;2023-02-27T08:16:30;2.30;;;2.10;;
14092;SDS011;7123;49.468;10.992;2023-02-27T08:18:58;5.37;;;2.50;;
14092;SDS011;7123;49.468;10.992;2023-02-27T08:21:25;5.20;;;1.80;;
14092;SDS011;7123;49.468;10.992;2023-02-27T08:23:54;2.87;;;2.43;;
14092;SDS011;7123;49.468;10.992;2023-02-27T08:26:21;5.37;;;2.50;;
14092;SDS011;7123;49.468;10.992;2023-02-27T08:28:48;2.37;;;1.97;;
14092;SDS011;7123;49.468;10.992;2023-02-27T08:31:15;3.37;;;1.97;;
14092;SDS011;7123;49.468;10.992;2023-02-27T08:33:41;2.47;;;1.90;;
14092;SDS011;7123;49.468;10.992;2023-02-27T08:36:08;2.30;;;2.00;;
14092;SDS011;7123;49.468;10.992;2023-02-27T08:38:35;3.00;;;1.70;;
14092;SDS011;7123;49.468;10.992;2023-02-27T08:41:02;2.20;;;1.80;;
14092;SDS011;7123;49.468;10.992;2023-02-27T08:43:29;2.43;;;1.80;;
14092;SDS011;7123;49.468;10.992;2023-02-27T08:45:55;3.23;;;1.87;;
14092;SDS011;7123;49.468;10.992;2023-02-27T08:48:22;2.33;;;1.80;;
14092;SDS011;7123;49.468;10.992;2023-02-27T08:50:49;2.57;;;1.87;;
14092;SDS011;7123;49.468;10.992;2023-02-27T08:53:17;4.67;;;2.10;;
14092;SDS011;7123;49.468;10.992;2023-02-27T08:55:47;1.63;;;1.53;;
14092;SDS011;7123;49.468;10.992;2023-02-27T08:58:16;6.00;;;1.83;;
14092;SDS011;7123;49.468;10.992;2023-02-27T09:00:43;3.43;;;1.67;;
14092;SDS011;7123;49.468;10.992;2023-02-27T09:03:10;1.97;;;1.53;;
14092;SDS011;7123;49.468;10.992;2023-02-27T09:05:37;1.70;;;1.60;;
14092;SDS011;7123;49.468;10.992;2023-02-27T09:08:04;2.57;;;1.27;;
14092;SDS011;7123;49.468;10.992;2023-02-27T09:10:32;2.53;;;1.77;;
14092;SDS011;7123;49.468;10.992;2023-02-27T09:12:59;2.97;;;1.73;;
14092;SDS011;7123;49.468;10.992;2023-02-27T09:15:26;2.57;;;1.60;;
14092;SDS011;7123;49.468;10.992;2023-02-27T09:17:53;2.13;;;1.47;;
14092;SDS011;7123;49.468;10.992;2023-02-27T09:20:28;2.17;;;1.67;;
14092;SDS011;7123;49.468;10.992;2023-02-27T09:22:57;1.73;;;1.60;;
14092;SDS011;7123;49.468;10.992;2023-02-27T09:25:24;3.17;;;1.90;;
14092;SDS011;7123;49.468;10.992;2023-02-27T09:27:52;1.83;;;1.33;;
14092;SDS011;7123;49.468;10.992;2023-02-27T09:30:19;2.20;;;1.40;;
14092;SDS011;7123;49.468;10.992;2023-02-27T09:32:45;2.67;;;1.70;;
14092;SDS011;7123;49.468;10.992;2023-02-27T09:35:12;3.33;;;1.63;;
14092;SDS011;7123;49.468;10.992;2023-02-27T09:37:43;2.07;;;1.37;;
14092;SDS011;7123;49.468;10.992;2023-02-27T09:40:19;1.97;;;1.60;;
14092;SDS011;7123;49.468;10.992;2023-02-27T09:42:46;5.17;;;1.60;;
14092;SDS011;7123;49.468;10.992;2023-02-27T09:45:20;3.93;;;1.40;;
14092;SDS011;7123;49.468;10.992;2023-02-27T09:48:02;2.57;;;1.37;;
14092;SDS011;7123;49.468;10.992;2023-02-27T09:53:05;1.23;;;1.13;;
14092;SDS011;7123;49.468;10.992;2023-02-27T09:55:37;4.93;;;1.20;;
14092;SDS011;7123;49.468;10.992;2023-02-27T09:58:17;2.50;;;1.40;;
14092;SDS011;7123;49.468;10.992;2023-02-27T10:06:43;1.67;;;1.17;;
14092;SDS011;7123;49.468;10.992;2023-02-27T10:09:34;1.40;;;1.20;;
14092;SDS011;7123;49.468;10.992;2023-02-27T10:14:52;4.97;;;1.27;;
14092;SDS011;7123;49.468;10.992;2023-02-27T10:17:29;3.80;;;1.40;;
14092;SDS011;7123;49.468;10.992;2023-02-27T10:20:00;4.57;;;1.23;;
14092;SDS011;7123;49.468;10.992;2023-02-27T10:22:35;5.83;;;1.50;;
14092;SDS011;7123;49.468;10.992;2023-02-27T10:25:11;1.67;;;1.30;;
14092;SDS011;7123;49.468;10.992;2023-02-27T10:27:57;4.67;;;1.30;;
14092;SDS011;7123;49.468;10.992;2023-02-27T10:30:33;1.57;;;1.30;;
14092;SDS011;7123;49.468;10.992;2023-02-27T10:33:06;3.93;;;1.30;;
14092;SDS011;7123;49.468;10.992;2023-02-27T10:35:47;2.30;;;1.00;;
14092;SDS011;7123;49.468;10.992;2023-02-27T10:38:19;1.80;;;1.30;;
14092;SDS011;7123;49.468;10.992;2023-02-27T10:40:55;1.13;;;1.00;;
14092;SDS011;7123;49.468;10.992;2023-02-27T10:43:23;3.07;;;1.10;;
14092;SDS011;7123;49.468;10.992;2023-02-27T10:45:51;3.03;;;1.20;;
14092;SDS011;7123;49.468;10.992;2023-02-27T10:48:18;1.90;;;1.20;;
14092;SDS011;7123;49.468;10.992;2023-02-27T10:50:48;3.23;;;1.30;;
14092;SDS011;7123;49.468;10.992;2023-02-27T10:53:20;1.47;;;1.00;;
14092;SDS011;7123;49.468;10.992;2023-02-27T10:56:03;2.80;;;1.00;;
14092;SDS011;7123;49.468;10.992;2023-02-27T10:58:35;1.40;;;1.00;;
14092;SDS011;7123;49.468;10.992;2023-02-27T11:01:04;1.33;;;1.03;;
14092;SDS011;7123;49.468;10.992;2023-02-27T11:03:34;4.07;;;1.20;;
14092;SDS011;7123;49.468;10.992;2023-02-27T11:06:25;2.17;;;1.20;;
14092;SDS011;7123;49.468;10.992;2023-02-27T11:09:09;3.20;;;1.10;;
14092;SDS011;7123;49.468;10.992;2023-02-27T11:11:36;1.73;;;1.17;;
14092;SDS011;7123;49.468;10.992;2023-02-27T11:16:56;1.57;;;1.40;;
14092;SDS011;7123;49.468;10.992;2023-02-27T11:24:31;1.63;;;1.07;;
14092;SDS011;7123;49.468;10.992;2023-02-27T11:27:00;4.10;;;1.30;;
14092;SDS011;7123;49.468;10.992;2023-02-27T11:29:30;2.87;;;1.10;;
14092;SDS011;7123;49.468;10.992;2023-02-27T11:31:59;1.30;;;0.83;;
14092;SDS011;7123;49.468;10.992;2023-02-27T11:34:46;1.53;;;0.87;;
14092;SDS011;7123;49.468;10.992;2023-02-27T11:39:49;2.17;;;1.40;;
14092;SDS011;7123;49.468;10.992;2023-02-27T11:42:25;5.37;;;1.20;;
14092;SDS011;7123;49.468;10.992;2023-02-27T11:44:57;2.50;;;1.00;;
14092;SDS011;7123;49.468;10.992;2023-02-27T11:47:32;2.50;;;1.57;;
14092;SDS011;7123;49.468;10.992;2023-02-27T11:50:11;1.57;;;1.37;;
14092;SDS011;7123;49.468;10.992;2023-02-27T11:53:04;2.20;;;0.70;;
14092;SDS011;7123;49.468;10.992;2023-02-27T11:55:39;2.57;;;1.30;;
14092;SDS011;7123;49.468;10.992;2023-02-27T11:58:10;1.30;;;1.20;;
14092;SDS011;7123;49.468;10.992;2023-02-27T12:00:47;3.17;;;1.20;;
14092;SDS011;7123;49.468;10.992;2023-02-27T12:03:21;1.40;;;1.10;;
14092;SDS011;7123;49.468;10.992;2023-02-27T12:05:53;1.53;;;0.90;;
14092;SDS011;7123;49.468;10.992;2023-02-27T12:13:40;1.83;;;1.20;;
14092;SDS011;7123;49.468;10.992;2023-02-27T12:19:00;1.67;;;1.10;;
14092;SDS011;7123;49.468;10.992;2023-02-27T12:21:39;1.33;;;1.00;;
14092;SDS011;7123;49.468;10.992;2023-02-27T12:24:18;2.70;;;1.10;;
14092;SDS011;7123;49.468;10.992;2023-02-27T12:29:46;1.23;;;1.03;;
14092;SDS011;7123;49.468;10.992;2023-02-27T12:32:22;1.27;;;0.90;;
14092;SDS011;7123;49.468;10.992;2023-02-27T12:35:25;5.20;;;0.77;;
14092;SDS011;7123;49.468;10.992;2023-02-27T12:37:55;3.50;;;1.43;;
14092;SDS011;7123;49.468;10.992;2023-02-27T12:40:26;1.80;;;1.23;;
14092;SDS011;7123;49.468;10.992;2023-02-27T12:43:04;3.00;;;1.30;;
14092;SDS011;7123;49.468;10.992;2023-02-27T12:56:16;2.13;;;1.20;;
14092;SDS011;7123;49.468;10.992;2023-02-27T12:58:54;0.97;;;0.97;;
14092;SDS011;7123;49.468;10.992;2023-02-27T13:02:36;4.30;;;1.00;;
14092;SDS011;7123;49.468;10.992;2023-02-27T13:04:46;3.33;;;1.30;;
14092;SDS011;7123;49.468;10.992;2023-02-27T13:07:24;1.17;;;1.07;;
14092;SDS011;7123;49.468;10.992;2023-02-27T13:10:23;3.23;;;1.10;;
14092;SDS011;7123;49.468;10.992;2023-02-27T13:16:00;4.43;;;1.13;;
14092;SDS011;7123;49.468;10.992;2023-02-27T13:21:07;3.60;;;1.23;;
14092;SDS011;7123;49.468;10.992;2023-02-27T13:26:33;1.57;;;1.20;;
14092;SDS011;7123;49.468;10.992;2023-02-27T13:29:06;2.87;;;1.50;;
14092;SDS011;7123;49.468;10.992;2023-02-27T13:34:36;2.20;;;1.30;;
14092;SDS011;7123;49.468;10.992;2023-02-27T13:37:17;3.70;;;1.50;;
14092;SDS011;7123;49.468;10.992;2023-02-27T13:44:59;1.60;;;1.10;;
14092;SDS011;7123;49.468;10.992;2023-02-27T13:49:54;1.17;;;1.00;;
14092;SDS011;7123;49.468;10.992;2023-02-27T13:52:48;1.47;;;0.97;;
14092;SDS011;7123;49.468;10.992;2023-02-27T13:55:24;4.30;;;1.37;;
14092;SDS011;7123;49.468;10.992;2023-02-27T13:57:56;1.20;;;1.10;;
14092;SDS011;7123;49.468;10.992;2023-02-27T14:00:25;2.33;;;1.17;;
14092;SDS011;7123;49.468;10.992;2023-02-27T14:03:00;2.23;;;1.00;;
14092;SDS011;7123;49.468;10.992;2023-02-27T14:05:32;0.93;;;0.80;;
14092;SDS011;7123;49.468;10.992;2023-02-27T14:08:14;0.70;;;0.70;;
14092;SDS011;7123;49.468;10.992;2023-02-27T14:10:56;4.00;;;1.23;;
14092;SDS011;7123;49.468;10.992;2023-02-27T14:19:27;1.63;;;1.00;;
14092;SDS011;7123;49.468;10.992;2023-02-27T14:24:53;1.43;;;1.20;;
14092;SDS011;7123;49.468;10.992;2023-02-27T14:27:29;1.70;;;0.90;;
14092;SDS011;7123;49.468;10.992;2023-02-27T14:30:34;1.23;;;1.07;;
14092;SDS011;7123;49.468;10.992;2023-02-27T14:33:13;2.17;;;1.20;;
14092;SDS011;7123;49.468;10.992;2023-02-27T14:35:57;1.50;;;1.30;;
14092;SDS011;7123;49.468;10.992;2023-02-27T14:38:27;6.80;;;0.97;;
14092;SDS011;7123;49.468;10.992;2023-02-27T14:40:57;1.03;;;1.00;;
14092;SDS011;7123;49.468;10.992;2023-02-27T14:43:41;1.67;;;1.10;;
14092;SDS011;7123;49.468;10.992;2023-02-27T14:48:57;4.53;;;1.10;;
14092;SDS011;7123;49.468;10.992;2023-02-27T14:51:26;2.27;;;1.10;;
14092;SDS011;7123;49.468;10.992;2023-02-27T14:54:06;1.67;;;1.13;;
14092;SDS011;7123;49.468;10.992;2023-02-27T14:56:37;4.93;;;0.90;;
14092;SDS011;7123;49.468;10.992;2023-02-27T14:59:21;1.97;;;0.97;;
14092;SDS011;7123;49.468;10.992;2023-02-27T15:01:49;1.47;;;1.13;;
14092;SDS011;7123;49.468;10.992;2023-02-27T15:04:17;1.07;;;1.07;;
14092;SDS011;7123;49.468;10.992;2023-02-27T15:06:46;1.67;;;1.30;;
14092;SDS011;7123;49.468;10.992;2023-02-27T15:09:23;4.97;;;1.47;;
14092;SDS011;7123;49.468;10.992;2023-02-27T15:11:57;3.10;;;1.53;;
14092;SDS011;7123;49.468;10.992;2023-02-27T15:14:31;1.40;;;1.30;;
14092;SDS011;7123;49.468;10.992;2023-02-27T15:17:02;1.00;;;1.00;;
14092;SDS011;7123;49.468;10.992;2023-02-27T15:19:30;1.20;;;1.10;;
14092;SDS011;7123;49.468;10.992;2023-02-27T15:21:58;1.50;;;1.30;;
14092;SDS011;7123;49.468;10.992;2023-02-27T15:24:44;4.13;;;1.40;;
14092;SDS011;7123;49.468;10.992;2023-02-27T15:27:17;1.10;;;1.10;;
14092;SDS011;7123;49.468;10.992;2023-02-27T15:29:50;1.40;;;1.27;;
14092;SDS011;7123;49.468;10.992;2023-02-27T15:32:28;1.43;;;1.33;;
14092;SDS011;7123;49.468;10.992;2023-02-27T15:34:58;2.50;;;1.60;;
14092;SDS011;7123;49.468;10.992;2023-02-27T15:37:31;4.07;;;1.40;;
14092;SDS011;7123;49.468;10.992;2023-02-27T15:39:59;2.40;;;1.60;;
14092;SDS011;7123;49.468;10.992;2023-02-27T15:42:27;3.50;;;1.60;;
14092;SDS011;7123;49.468;10.992;2023-02-27T15:44:56;2.03;;;1.47;;
14092;SDS011;7123;49.468;10.992;2023-02-27T15:47:28;1.60;;;1.50;;
14092;SDS011;7123;49.468;10.992;2023-02-27T15:49:59;2.07;;;1.40;;
14092;SDS011;7123;49.468;10.992;2023-02-27T15:52:39;4.97;;;1.47;;
14092;SDS011;7123;49.468;10.992;2023-02-27T15:55:28;2.63;;;1.60;;
14092;SDS011;7123;49.468;10.992;2023-02-27T15:57:57;2.07;;;1.73;;
14092;SDS011;7123;49.468;10.992;2023-02-27T16:00:29;1.77;;;1.20;;
14092;SDS011;7123;49.468;10.992;2023-02-27T16:02:57;1.40;;;1.30;;
14092;SDS011;7123;49.468;10.992;2023-02-27T16:05:34;1.87;;;1.40;;
14092;SDS011;7123;49.468;10.992;2023-02-27T16:08:03;1.63;;;1.37;;
14092;SDS011;7123;49.468;10.992;2023-02-27T16:10:35;2.57;;;1.50;;
14092;SDS011;7123;49.468;10.992;2023-02-27T16:18:46;2.13;;;1.40;;
14092;SDS011;7123;49.468;10.992;2023-02-27T16:21:18;1.47;;;1.37;;
14092;SDS011;7123;49.468;10.992;2023-02-27T16:23:53;1.87;;;1.50;;
14092;SDS011;7123;49.468;10.992;2023-02-27T16:28:58;1.67;;;1.57;;
14092;SDS011;7123;49.468;10.992;2023-02-27T16:31:36;2.00;;;1.80;;
14092;SDS011;7123;49.468;10.992;2023-02-27T16:36:41;1.77;;;1.30;;
14092;SDS011;7123;49.468;10.992;2023-02-27T16:39:17;5.07;;;1.70;;
14092;SDS011;7123;49.468;10.992;2023-02-27T16:41:44;5.50;;;1.63;;
14092;SDS011;7123;49.468;10.992;2023-02-27T16:44:10;3.23;;;1.90;;
14092;SDS011;7123;49.468;10.992;2023-02-27T16:46:37;1.77;;;1.67;;
14092;SDS011;7123;49.468;10.992;2023-02-27T16:49:04;3.13;;;1.67;;
14092;SDS011;7123;49.468;10.992;2023-02-27T16:51:45;3.50;;;1.70;;
14092;SDS011;7123;49.468;10.992;2023-02-27T16:54:13;1.60;;;1.50;;
14092;SDS011;7123;49.468;10.992;2023-02-27T16:56:43;1.93;;;1.70;;
14092;SDS011;7123;49.468;10.992;2023-02-27T16:59:15;3.43;;;1.83;;
14092;SDS011;7123;49.468;10.992;2023-02-27T17:01:57;3.13;;;1.53;;
14092;SDS011;7123;49.468;10.992;2023-02-27T17:04:25;3.00;;;2.00;;
14092;SDS011;7123;49.468;10.992;2023-02-27T17:06:54;3.87;;;2.00;;
14092;SDS011;7123;49.468;10.992;2023-02-27T17:09:23;1.97;;;1.80;;
14092;SDS011;7123;49.468;10.992;2023-02-27T17:11:52;2.43;;;1.77;;
14092;SDS011;7123;49.468;10.992;2023-02-27T17:14:20;3.40;;;2.20;;
14092;SDS011;7123;49.468;10.992;2023-02-27T17:16:47;2.27;;;2.10;;
14092;SDS011;7123;49.468;10.992;2023-02-27T17:19:14;2.20;;;2.00;;
14092;SDS011;7123;49.468;10.992;2023-02-27T17:21:41;2.40;;;1.87;;
14092;SDS011;7123;49.468;10.992;2023-02-27T17:24:11;4.13;;;1.70;;
14092;SDS011;7123;49.468;10.992;2023-02-27T17:26:38;4.80;;;1.93;;
14092;SDS011;7123;49.468;10.992;2023-02-27T17:29:04;2.77;;;1.90;;
14092;SDS011;7123;49.468;10.992;2023-02-27T17:31:31;3.90;;;2.03;;
14092;SDS011;7123;49.468;10.992;2023-02-27T17:33:58;2.77;;;2.00;;
14092;SDS011;7123;49.468;10.992;2023-02-27T17:36:25;2.70;;;2.20;;
14092;SDS011;7123;49.468;10.992;2023-02-27T17:38:53;3.30;;;2.40;;